sensor_id;sensor_type;location;lat;lon;timestamp;P1;durP1;ratioP1;P2;durP2;ratioP2
68680;SDS011;55836;49.858;6.756;2023-02-12T00:00:30;36.67;;;22.30;;
68680;SDS011;55836;49.858;6.756;2023-02-12T00:02:56;36.37;;;23.47;;
68680;SDS011;55836;49.858;6.756;2023-02-12T00:05:22;38.47;;;21.27;;
68680;SDS011;55836;49.858;6.756;2023-02-12T00:07:49;35.03;;;20.47;;
68680;SDS011;55836;49.858;6.756;2023-02-12T00:10:15;39.37;;;22.80;;
68680;SDS011;55836;49.858;6.756;2023-02-12T00:12:41;38.93;;;21.47;;
68680;SDS011;55836;49.858;6.756;2023-02-12T00:15:07;35.67;;;19.77;;
68680;SDS011;55836;49.858;6.756;2023-02-12T00:17:33;33.77;;;19.97;;
68680;SDS011;55836;49.858;6.756;2023-02-12T00:19:59;42.37;;;21.27;;
68680;SDS011;55836;49.858;6.756;2023-02-12T00:22:25;35.43;;;20.50;;
68680;SDS011;55836;49.858;6.756;2023-02-12T00:24:53;35.67;;;20.90;;
68680;SDS011;55836;49.858;6.756;2023-02-12T00:27:19;34.20;;;19.33;;
68680;SDS011;55836;49.858;6.756;2023-02-12T00:29:45;34.67;;;19.23;;
68680;SDS011;55836;49.858;6.756;2023-02-12T00:32:11;33.17;;;19.40;;
68680;SDS011;55836;49.858;6.756;2023-02-12T00:34:38;33.03;;;19.20;;
68680;SDS011;55836;49.858;6.756;2023-02-12T00:37:05;36.47;;;19.53;;
68680;SDS011;55836;49.858;6.756;2023-02-12T00:39:31;35.77;;;20.37;;
68680;SDS011;55836;49.858;6.756;2023-02-12T00:42:00;36.43;;;19.97;;
68680;SDS011;55836;49.858;6.756;2023-02-12T00:44:26;38.97;;;20.13;;
68680;SDS011;55836;49.858;6.756;2023-02-12T00:46:52;33.93;;;19.70;;
68680;SDS011;55836;49.858;6.756;2023-02-12T00:49:18;32.40;;;18.50;;
68680;SDS011;55836;49.858;6.756;2023-02-12T00:51:44;31.33;;;17.80;;
68680;SDS011;55836;49.858;6.756;2023-02-12T00:54:10;33.13;;;18.80;;
68680;SDS011;55836;49.858;6.756;2023-02-12T00:56:36;32.37;;;19.10;;
68680;SDS011;55836;49.858;6.756;2023-02-12T00:59:02;35.70;;;18.47;;
68680;SDS011;55836;49.858;6.756;2023-02-12T01:01:28;33.40;;;18.93;;
68680;SDS011;55836;49.858;6.756;2023-02-12T01:03:54;30.63;;;18.10;;
68680;SDS011;55836;49.858;6.756;2023-02-12T01:06:20;33.90;;;19.70;;
68680;SDS011;55836;49.858;6.756;2023-02-12T01:08:49;34.43;;;19.17;;
68680;SDS011;55836;49.858;6.756;2023-02-12T01:11:15;35.53;;;20.30;;
68680;SDS011;55836;49.858;6.756;2023-02-12T01:13:41;30.30;;;18.83;;
68680;SDS011;55836;49.858;6.756;2023-02-12T01:16:08;36.50;;;19.93;;
68680;SDS011;55836;49.858;6.756;2023-02-12T01:18:37;32.23;;;19.60;;
68680;SDS011;55836;49.858;6.756;2023-02-12T01:21:07;31.80;;;19.83;;
68680;SDS011;55836;49.858;6.756;2023-02-12T01:23:34;31.43;;;18.53;;
68680;SDS011;55836;49.858;6.756;2023-02-12T01:26:00;33.07;;;18.87;;
68680;SDS011;55836;49.858;6.756;2023-02-12T01:28:26;35.00;;;19.80;;
68680;SDS011;55836;49.858;6.756;2023-02-12T01:30:52;29.73;;;17.43;;
68680;SDS011;55836;49.858;6.756;2023-02-12T01:33:18;30.20;;;16.73;;
68680;SDS011;55836;49.858;6.756;2023-02-12T01:35:45;31.27;;;18.03;;
68680;SDS011;55836;49.858;6.756;2023-02-12T01:38:11;34.97;;;18.33;;
68680;SDS011;55836;49.858;6.756;2023-02-12T01:40:37;31.60;;;18.20;;
68680;SDS011;55836;49.858;6.756;2023-02-12T01:43:03;30.07;;;17.10;;
68680;SDS011;55836;49.858;6.756;2023-02-12T01:48:01;42.83;;;25.07;;
68680;SDS011;55836;49.858;6.756;2023-02-12T01:50:27;45.20;;;24.00;;
68680;SDS011;55836;49.858;6.756;2023-02-12T01:52:54;40.73;;;24.73;;
68680;SDS011;55836;49.858;6.756;2023-02-12T01:55:20;37.70;;;22.80;;
68680;SDS011;55836;49.858;6.756;2023-02-12T01:57:47;34.23;;;21.73;;
68680;SDS011;55836;49.858;6.756;2023-02-12T02:00:17;39.30;;;23.70;;
68680;SDS011;55836;49.858;6.756;2023-02-12T02:02:45;43.13;;;23.60;;
68680;SDS011;55836;49.858;6.756;2023-02-12T02:05:12;38.70;;;21.73;;
68680;SDS011;55836;49.858;6.756;2023-02-12T02:07:40;34.20;;;19.83;;
68680;SDS011;55836;49.858;6.756;2023-02-12T02:10:08;32.93;;;19.23;;
68680;SDS011;55836;49.858;6.756;2023-02-12T02:12:34;31.93;;;19.53;;
68680;SDS011;55836;49.858;6.756;2023-02-12T02:15:19;41.07;;;22.20;;
68680;SDS011;55836;49.858;6.756;2023-02-12T02:23:31;37.00;;;20.50;;
68680;SDS011;55836;49.858;6.756;2023-02-12T02:39:06;38.50;;;22.77;;
68680;SDS011;55836;49.858;6.756;2023-02-12T02:41:36;36.87;;;21.87;;
68680;SDS011;55836;49.858;6.756;2023-02-12T02:44:04;37.23;;;20.63;;
68680;SDS011;55836;49.858;6.756;2023-02-12T02:46:45;43.53;;;23.47;;
68680;SDS011;55836;49.858;6.756;2023-02-12T02:49:13;41.83;;;24.47;;
68680;SDS011;55836;49.858;6.756;2023-02-12T02:51:42;44.43;;;24.27;;
68680;SDS011;55836;49.858;6.756;2023-02-12T02:56:40;44.00;;;23.67;;
68680;SDS011;55836;49.858;6.756;2023-02-12T02:59:09;39.90;;;22.20;;
68680;SDS011;55836;49.858;6.756;2023-02-12T03:01:38;33.47;;;19.87;;
68680;SDS011;55836;49.858;6.756;2023-02-12T03:04:07;33.80;;;20.37;;
68680;SDS011;55836;49.858;6.756;2023-02-12T03:06:36;34.97;;;20.47;;
68680;SDS011;55836;49.858;6.756;2023-02-12T03:09:18;31.70;;;19.50;;
68680;SDS011;55836;49.858;6.756;2023-02-12T03:11:46;33.33;;;20.00;;
68680;SDS011;55836;49.858;6.756;2023-02-12T03:14:21;31.10;;;19.53;;
68680;SDS011;55836;49.858;6.756;2023-02-12T03:19:41;32.50;;;18.57;;
68680;SDS011;55836;49.858;6.756;2023-02-12T03:22:11;33.53;;;18.53;;
68680;SDS011;55836;49.858;6.756;2023-02-12T03:24:39;32.73;;;20.40;;
68680;SDS011;55836;49.858;6.756;2023-02-12T03:27:07;37.23;;;20.33;;
68680;SDS011;55836;49.858;6.756;2023-02-12T03:29:34;30.43;;;18.50;;
68680;SDS011;55836;49.858;6.756;2023-02-12T03:34:33;30.30;;;17.97;;
68680;SDS011;55836;49.858;6.756;2023-02-12T03:44:46;29.00;;;17.43;;
68680;SDS011;55836;49.858;6.756;2023-02-12T03:52:35;32.30;;;17.67;;
68680;SDS011;55836;49.858;6.756;2023-02-12T03:55:02;29.23;;;18.77;;
68680;SDS011;55836;49.858;6.756;2023-02-12T03:57:30;32.63;;;19.43;;
68680;SDS011;55836;49.858;6.756;2023-02-12T03:59:58;28.77;;;18.33;;
68680;SDS011;55836;49.858;6.756;2023-02-12T04:02:26;32.57;;;18.63;;
68680;SDS011;55836;49.858;6.756;2023-02-12T04:04:52;32.33;;;18.70;;
68680;SDS011;55836;49.858;6.756;2023-02-12T04:07:18;31.20;;;18.47;;
68680;SDS011;55836;49.858;6.756;2023-02-12T04:09:45;36.90;;;19.63;;
68680;SDS011;55836;49.858;6.756;2023-02-12T04:17:14;41.53;;;22.90;;
68680;SDS011;55836;49.858;6.756;2023-02-12T04:27:46;32.07;;;19.13;;
68680;SDS011;55836;49.858;6.756;2023-02-12T04:30:17;37.00;;;19.40;;
68680;SDS011;55836;49.858;6.756;2023-02-12T04:32:56;33.53;;;20.97;;
68680;SDS011;55836;49.858;6.756;2023-02-12T04:38:15;33.73;;;19.27;;
68680;SDS011;55836;49.858;6.756;2023-02-12T04:40:39;28.30;;;17.47;;
68680;SDS011;55836;49.858;6.756;2023-02-12T04:43:05;32.80;;;19.27;;
68680;SDS011;55836;49.858;6.756;2023-02-12T04:45:32;32.77;;;18.80;;
68680;SDS011;55836;49.858;6.756;2023-02-12T04:47:58;33.73;;;19.97;;
68680;SDS011;55836;49.858;6.756;2023-02-12T04:50:25;36.17;;;19.00;;
68680;SDS011;55836;49.858;6.756;2023-02-12T04:52:51;32.03;;;19.30;;
68680;SDS011;55836;49.858;6.756;2023-02-12T04:55:17;37.17;;;21.23;;
68680;SDS011;55836;49.858;6.756;2023-02-12T04:57:43;39.87;;;22.30;;
68680;SDS011;55836;49.858;6.756;2023-02-12T05:00:12;44.33;;;23.13;;
68680;SDS011;55836;49.858;6.756;2023-02-12T05:02:39;41.57;;;21.17;;
68680;SDS011;55836;49.858;6.756;2023-02-12T05:05:05;37.80;;;21.13;;
68680;SDS011;55836;49.858;6.756;2023-02-12T05:07:31;31.70;;;18.00;;
68680;SDS011;55836;49.858;6.756;2023-02-12T05:09:57;40.13;;;20.60;;
68680;SDS011;55836;49.858;6.756;2023-02-12T05:12:23;30.07;;;18.00;;
68680;SDS011;55836;49.858;6.756;2023-02-12T05:14:49;32.07;;;18.63;;
68680;SDS011;55836;49.858;6.756;2023-02-12T05:17:15;33.63;;;19.37;;
68680;SDS011;55836;49.858;6.756;2023-02-12T05:19:41;32.63;;;19.83;;
68680;SDS011;55836;49.858;6.756;2023-02-12T05:22:07;34.80;;;20.10;;
68680;SDS011;55836;49.858;6.756;2023-02-12T05:24:33;32.50;;;19.70;;
68680;SDS011;55836;49.858;6.756;2023-02-12T05:26:59;39.73;;;20.63;;
68680;SDS011;55836;49.858;6.756;2023-02-12T05:29:25;38.60;;;21.93;;
68680;SDS011;55836;49.858;6.756;2023-02-12T05:31:51;35.77;;;20.97;;
68680;SDS011;55836;49.858;6.756;2023-02-12T05:34:17;41.40;;;24.03;;
68680;SDS011;55836;49.858;6.756;2023-02-12T05:36:44;45.20;;;23.60;;
68680;SDS011;55836;49.858;6.756;2023-02-12T05:39:10;41.37;;;24.93;;
68680;SDS011;55836;49.858;6.756;2023-02-12T05:41:36;49.30;;;26.33;;
68680;SDS011;55836;49.858;6.756;2023-02-12T05:44:02;43.57;;;25.00;;
68680;SDS011;55836;49.858;6.756;2023-02-12T05:46:29;47.67;;;24.87;;
68680;SDS011;55836;49.858;6.756;2023-02-12T05:48:55;50.03;;;25.57;;
68680;SDS011;55836;49.858;6.756;2023-02-12T05:51:23;44.00;;;25.40;;
68680;SDS011;55836;49.858;6.756;2023-02-12T05:53:50;40.20;;;24.20;;
68680;SDS011;55836;49.858;6.756;2023-02-12T05:56:18;41.40;;;25.83;;
68680;SDS011;55836;49.858;6.756;2023-02-12T05:58:45;43.67;;;23.77;;
68680;SDS011;55836;49.858;6.756;2023-02-12T06:01:16;49.37;;;26.10;;
68680;SDS011;55836;49.858;6.756;2023-02-12T06:03:42;43.20;;;25.33;;
68680;SDS011;55836;49.858;6.756;2023-02-12T06:06:09;43.80;;;25.37;;
68680;SDS011;55836;49.858;6.756;2023-02-12T06:08:35;46.87;;;26.40;;
68680;SDS011;55836;49.858;6.756;2023-02-12T06:11:02;49.27;;;28.17;;
68680;SDS011;55836;49.858;6.756;2023-02-12T06:13:29;43.97;;;27.40;;
68680;SDS011;55836;49.858;6.756;2023-02-12T06:15:56;50.83;;;27.33;;
68680;SDS011;55836;49.858;6.756;2023-02-12T06:18:22;48.90;;;27.93;;
68680;SDS011;55836;49.858;6.756;2023-02-12T06:20:48;47.37;;;26.53;;
68680;SDS011;55836;49.858;6.756;2023-02-12T06:23:14;51.20;;;28.70;;
68680;SDS011;55836;49.858;6.756;2023-02-12T06:25:40;46.43;;;26.70;;
68680;SDS011;55836;49.858;6.756;2023-02-12T06:28:06;54.00;;;30.27;;
68680;SDS011;55836;49.858;6.756;2023-02-12T06:30:33;49.20;;;29.37;;
68680;SDS011;55836;49.858;6.756;2023-02-12T06:32:59;52.33;;;28.13;;
68680;SDS011;55836;49.858;6.756;2023-02-12T06:35:25;53.43;;;28.50;;
68680;SDS011;55836;49.858;6.756;2023-02-12T06:37:51;44.93;;;27.17;;
68680;SDS011;55836;49.858;6.756;2023-02-12T06:40:17;50.17;;;29.47;;
68680;SDS011;55836;49.858;6.756;2023-02-12T06:42:44;48.67;;;27.80;;
68680;SDS011;55836;49.858;6.756;2023-02-12T06:45:10;41.53;;;25.13;;
68680;SDS011;55836;49.858;6.756;2023-02-12T06:47:36;43.50;;;25.33;;
68680;SDS011;55836;49.858;6.756;2023-02-12T06:50:02;49.93;;;26.80;;
68680;SDS011;55836;49.858;6.756;2023-02-12T06:52:28;39.47;;;25.90;;
68680;SDS011;55836;49.858;6.756;2023-02-12T06:54:54;45.50;;;25.90;;
68680;SDS011;55836;49.858;6.756;2023-02-12T06:57:20;36.77;;;22.43;;
68680;SDS011;55836;49.858;6.756;2023-02-12T06:59:46;35.13;;;22.23;;
68680;SDS011;55836;49.858;6.756;2023-02-12T07:02:13;35.03;;;20.07;;
68680;SDS011;55836;49.858;6.756;2023-02-12T07:04:39;39.87;;;21.00;;
68680;SDS011;55836;49.858;6.756;2023-02-12T07:07:05;33.67;;;19.37;;
68680;SDS011;55836;49.858;6.756;2023-02-12T07:09:32;33.00;;;19.03;;
68680;SDS011;55836;49.858;6.756;2023-02-12T07:11:58;30.40;;;18.40;;
68680;SDS011;55836;49.858;6.756;2023-02-12T07:14:24;32.07;;;18.70;;
68680;SDS011;55836;49.858;6.756;2023-02-12T07:16:52;38.73;;;21.77;;
68680;SDS011;55836;49.858;6.756;2023-02-12T07:19:18;33.47;;;18.60;;
68680;SDS011;55836;49.858;6.756;2023-02-12T07:21:44;33.20;;;18.03;;
68680;SDS011;55836;49.858;6.756;2023-02-12T07:24:11;36.53;;;19.67;;
68680;SDS011;55836;49.858;6.756;2023-02-12T07:26:37;28.53;;;17.63;;
68680;SDS011;55836;49.858;6.756;2023-02-12T07:29:03;28.40;;;16.87;;
68680;SDS011;55836;49.858;6.756;2023-02-12T07:31:29;31.70;;;20.07;;
68680;SDS011;55836;49.858;6.756;2023-02-12T07:33:56;28.73;;;17.60;;
68680;SDS011;55836;49.858;6.756;2023-02-12T07:36:23;31.40;;;19.17;;
68680;SDS011;55836;49.858;6.756;2023-02-12T07:38:50;27.93;;;17.07;;
68680;SDS011;55836;49.858;6.756;2023-02-12T07:41:20;32.03;;;19.20;;
68680;SDS011;55836;49.858;6.756;2023-02-12T07:43:47;36.43;;;21.27;;
68680;SDS011;55836;49.858;6.756;2023-02-12T07:46:20;34.10;;;19.57;;
68680;SDS011;55836;49.858;6.756;2023-02-12T07:48:46;30.33;;;19.00;;
68680;SDS011;55836;49.858;6.756;2023-02-12T07:51:13;36.57;;;20.07;;
68680;SDS011;55836;49.858;6.756;2023-02-12T07:53:40;39.40;;;24.97;;
68680;SDS011;55836;49.858;6.756;2023-02-12T07:58:32;42.23;;;27.47;;
68680;SDS011;55836;49.858;6.756;2023-02-12T08:00:58;57.23;;;29.20;;
68680;SDS011;55836;49.858;6.756;2023-02-12T08:03:26;52.43;;;29.40;;
68680;SDS011;55836;49.858;6.756;2023-02-12T08:05:52;49.30;;;27.70;;
68680;SDS011;55836;49.858;6.756;2023-02-12T08:08:18;49.67;;;30.17;;
68680;SDS011;55836;49.858;6.756;2023-02-12T08:10:44;54.73;;;32.30;;
68680;SDS011;55836;49.858;6.756;2023-02-12T08:13:10;56.63;;;31.63;;
68680;SDS011;55836;49.858;6.756;2023-02-12T08:15:36;57.90;;;31.93;;
68680;SDS011;55836;49.858;6.756;2023-02-12T08:18:02;54.30;;;30.70;;
68680;SDS011;55836;49.858;6.756;2023-02-12T08:20:28;64.00;;;32.37;;
68680;SDS011;55836;49.858;6.756;2023-02-12T08:22:54;62.67;;;32.20;;
68680;SDS011;55836;49.858;6.756;2023-02-12T08:25:20;57.90;;;33.90;;
68680;SDS011;55836;49.858;6.756;2023-02-12T08:27:46;60.53;;;31.67;;
68680;SDS011;55836;49.858;6.756;2023-02-12T08:30:12;58.80;;;34.17;;
68680;SDS011;55836;49.858;6.756;2023-02-12T08:32:38;60.60;;;35.50;;
68680;SDS011;55836;49.858;6.756;2023-02-12T08:35:04;56.53;;;34.67;;
68680;SDS011;55836;49.858;6.756;2023-02-12T08:37:31;65.47;;;36.43;;
68680;SDS011;55836;49.858;6.756;2023-02-12T08:39:57;64.07;;;35.77;;
68680;SDS011;55836;49.858;6.756;2023-02-12T08:42:23;61.27;;;36.47;;
68680;SDS011;55836;49.858;6.756;2023-02-12T08:44:49;72.67;;;38.07;;
68680;SDS011;55836;49.858;6.756;2023-02-12T08:47:15;66.47;;;36.87;;
68680;SDS011;55836;49.858;6.756;2023-02-12T08:49:41;60.33;;;34.60;;
68680;SDS011;55836;49.858;6.756;2023-02-12T08:52:07;67.33;;;35.17;;
68680;SDS011;55836;49.858;6.756;2023-02-12T08:54:33;69.67;;;35.37;;
68680;SDS011;55836;49.858;6.756;2023-02-12T08:57:00;64.23;;;35.90;;
68680;SDS011;55836;49.858;6.756;2023-02-12T08:59:27;61.73;;;34.70;;
68680;SDS011;55836;49.858;6.756;2023-02-12T09:01:53;65.13;;;35.13;;
68680;SDS011;55836;49.858;6.756;2023-02-12T09:04:21;62.17;;;34.23;;
68680;SDS011;55836;49.858;6.756;2023-02-12T09:06:47;75.10;;;37.53;;
68680;SDS011;55836;49.858;6.756;2023-02-12T09:09:14;69.30;;;33.97;;
68680;SDS011;55836;49.858;6.756;2023-02-12T09:11:40;73.20;;;35.27;;
68680;SDS011;55836;49.858;6.756;2023-02-12T09:14:07;70.60;;;35.67;;
68680;SDS011;55836;49.858;6.756;2023-02-12T09:16:35;73.67;;;36.87;;
68680;SDS011;55836;49.858;6.756;2023-02-12T09:19:02;79.83;;;38.13;;
68680;SDS011;55836;49.858;6.756;2023-02-12T09:21:28;84.83;;;36.57;;
68680;SDS011;55836;49.858;6.756;2023-02-12T09:23:55;84.43;;;37.73;;
68680;SDS011;55836;49.858;6.756;2023-02-12T09:26:22;87.10;;;40.57;;
68680;SDS011;55836;49.858;6.756;2023-02-12T09:28:49;87.63;;;40.07;;
68680;SDS011;55836;49.858;6.756;2023-02-12T09:31:20;89.90;;;40.23;;
68680;SDS011;55836;49.858;6.756;2023-02-12T09:33:47;81.87;;;40.17;;
68680;SDS011;55836;49.858;6.756;2023-02-12T09:36:14;81.87;;;37.57;;
68680;SDS011;55836;49.858;6.756;2023-02-12T09:38:40;77.97;;;37.73;;
68680;SDS011;55836;49.858;6.756;2023-02-12T09:43:43;78.73;;;36.07;;
68680;SDS011;55836;49.858;6.756;2023-02-12T09:46:27;77.37;;;37.07;;
68680;SDS011;55836;49.858;6.756;2023-02-12T09:51:23;82.20;;;38.20;;
68680;SDS011;55836;49.858;6.756;2023-02-12T09:53:52;74.63;;;37.13;;
68680;SDS011;55836;49.858;6.756;2023-02-12T09:56:20;76.13;;;37.83;;
68680;SDS011;55836;49.858;6.756;2023-02-12T09:58:51;80.60;;;37.80;;
68680;SDS011;55836;49.858;6.756;2023-02-12T10:01:19;75.57;;;36.27;;
68680;SDS011;55836;49.858;6.756;2023-02-12T10:03:46;75.20;;;37.17;;
68680;SDS011;55836;49.858;6.756;2023-02-12T10:06:13;76.37;;;37.97;;
68680;SDS011;55836;49.858;6.756;2023-02-12T10:13:55;68.70;;;34.83;;
68680;SDS011;55836;49.858;6.756;2023-02-12T10:26:30;58.57;;;30.93;;
68680;SDS011;55836;49.858;6.756;2023-02-12T10:28:58;55.10;;;29.80;;
68680;SDS011;55836;49.858;6.756;2023-02-12T10:31:30;60.33;;;28.90;;
68680;SDS011;55836;49.858;6.756;2023-02-12T10:33:57;58.90;;;29.20;;
68680;SDS011;55836;49.858;6.756;2023-02-12T10:38:54;60.20;;;29.07;;
68680;SDS011;55836;49.858;6.756;2023-02-12T10:41:22;54.63;;;28.40;;
68680;SDS011;55836;49.858;6.756;2023-02-12T10:43:49;59.47;;;27.57;;
68680;SDS011;55836;49.858;6.756;2023-02-12T10:46:15;50.50;;;28.03;;
68680;SDS011;55836;49.858;6.756;2023-02-12T10:48:45;53.10;;;26.40;;
68680;SDS011;55836;49.858;6.756;2023-02-12T10:53:54;51.73;;;28.20;;
68680;SDS011;55836;49.858;6.756;2023-02-12T10:56:21;54.57;;;26.40;;
68680;SDS011;55836;49.858;6.756;2023-02-12T11:03:50;56.90;;;28.30;;
68680;SDS011;55836;49.858;6.756;2023-02-12T11:06:18;49.70;;;26.63;;
68680;SDS011;55836;49.858;6.756;2023-02-12T11:08:44;49.30;;;26.77;;
68680;SDS011;55836;49.858;6.756;2023-02-12T11:11:14;45.43;;;24.43;;
68680;SDS011;55836;49.858;6.756;2023-02-12T11:13:45;53.93;;;27.27;;
68680;SDS011;55836;49.858;6.756;2023-02-12T11:16:13;46.13;;;25.23;;
68680;SDS011;55836;49.858;6.756;2023-02-12T11:18:41;47.87;;;27.03;;
68680;SDS011;55836;49.858;6.756;2023-02-12T11:21:10;46.27;;;24.73;;
68680;SDS011;55836;49.858;6.756;2023-02-12T11:23:41;43.50;;;24.10;;
68680;SDS011;55836;49.858;6.756;2023-02-12T11:28:51;45.33;;;23.37;;
68680;SDS011;55836;49.858;6.756;2023-02-12T11:33:43;44.33;;;22.63;;
68680;SDS011;55836;49.858;6.756;2023-02-12T11:36:18;43.80;;;22.77;;
68680;SDS011;55836;49.858;6.756;2023-02-12T11:38:50;44.80;;;23.67;;
68680;SDS011;55836;49.858;6.756;2023-02-12T11:43:44;44.77;;;23.30;;
68680;SDS011;55836;49.858;6.756;2023-02-12T11:46:10;37.83;;;21.57;;
68680;SDS011;55836;49.858;6.756;2023-02-12T11:48:43;42.10;;;21.77;;
68680;SDS011;55836;49.858;6.756;2023-02-12T11:51:17;42.77;;;22.10;;
68680;SDS011;55836;49.858;6.756;2023-02-12T11:53:45;38.57;;;21.53;;
68680;SDS011;55836;49.858;6.756;2023-02-12T11:56:12;39.03;;;20.83;;
68680;SDS011;55836;49.858;6.756;2023-02-12T11:58:39;32.83;;;19.97;;
68680;SDS011;55836;49.858;6.756;2023-02-12T12:09:14;31.57;;;17.40;;
68680;SDS011;55836;49.858;6.756;2023-02-12T12:11:46;33.13;;;17.97;;
68680;SDS011;55836;49.858;6.756;2023-02-12T12:14:23;31.60;;;17.10;;
68680;SDS011;55836;49.858;6.756;2023-02-12T12:19:51;26.43;;;14.40;;
68680;SDS011;55836;49.858;6.756;2023-02-12T12:22:25;26.80;;;14.33;;
68680;SDS011;55836;49.858;6.756;2023-02-12T12:30:33;26.00;;;14.03;;
68680;SDS011;55836;49.858;6.756;2023-02-12T12:33:02;22.90;;;12.63;;
68680;SDS011;55836;49.858;6.756;2023-02-12T12:41:16;21.67;;;13.60;;
68680;SDS011;55836;49.858;6.756;2023-02-12T12:46:27;21.47;;;12.67;;
68680;SDS011;55836;49.858;6.756;2023-02-12T12:49:08;21.60;;;13.57;;
68680;SDS011;55836;49.858;6.756;2023-02-12T13:17:32;18.07;;;10.90;;
68680;SDS011;55836;49.858;6.756;2023-02-12T13:23:01;15.90;;;10.73;;
68680;SDS011;55836;49.858;6.756;2023-02-12T13:25:33;18.37;;;11.50;;
68680;SDS011;55836;49.858;6.756;2023-02-12T13:28:01;14.87;;;9.77;;
68680;SDS011;55836;49.858;6.756;2023-02-12T13:30:29;17.13;;;10.50;;
68680;SDS011;55836;49.858;6.756;2023-02-12T13:33:08;18.83;;;10.47;;
68680;SDS011;55836;49.858;6.756;2023-02-12T13:35:37;13.87;;;9.60;;
68680;SDS011;55836;49.858;6.756;2023-02-12T13:38:06;15.33;;;9.80;;
68680;SDS011;55836;49.858;6.756;2023-02-12T13:40:34;14.77;;;10.20;;
68680;SDS011;55836;49.858;6.756;2023-02-12T13:43:11;26.97;;;11.03;;
68680;SDS011;55836;49.858;6.756;2023-02-12T13:45:42;15.60;;;10.53;;
68680;SDS011;55836;49.858;6.756;2023-02-12T13:48:32;17.20;;;10.50;;
68680;SDS011;55836;49.858;6.756;2023-02-12T13:53:26;14.73;;;9.77;;
68680;SDS011;55836;49.858;6.756;2023-02-12T13:58:48;16.43;;;10.07;;
68680;SDS011;55836;49.858;6.756;2023-02-12T14:06:54;14.40;;;8.23;;
68680;SDS011;55836;49.858;6.756;2023-02-12T14:09:23;14.40;;;9.37;;
68680;SDS011;55836;49.858;6.756;2023-02-12T14:11:53;14.20;;;9.70;;
68680;SDS011;55836;49.858;6.756;2023-02-12T14:14:39;15.07;;;9.50;;
68680;SDS011;55836;49.858;6.756;2023-02-12T14:27:47;14.40;;;8.43;;
68680;SDS011;55836;49.858;6.756;2023-02-12T14:35:44;13.27;;;9.00;;
68680;SDS011;55836;49.858;6.756;2023-02-12T14:45:52;18.67;;;9.33;;
68680;SDS011;55836;49.858;6.756;2023-02-12T14:48:39;12.70;;;8.37;;
68680;SDS011;55836;49.858;6.756;2023-02-12T14:51:07;13.27;;;8.80;;
68680;SDS011;55836;49.858;6.756;2023-02-12T14:53:39;13.10;;;9.10;;
68680;SDS011;55836;49.858;6.756;2023-02-12T14:56:05;14.90;;;7.87;;
68680;SDS011;55836;49.858;6.756;2023-02-12T14:58:33;14.43;;;8.73;;
68680;SDS011;55836;49.858;6.756;2023-02-12T15:01:00;12.43;;;7.80;;
68680;SDS011;55836;49.858;6.756;2023-02-12T15:03:37;11.13;;;7.13;;
68680;SDS011;55836;49.858;6.756;2023-02-12T15:06:12;13.97;;;9.07;;
68680;SDS011;55836;49.858;6.756;2023-02-12T15:11:20;11.70;;;8.23;;
68680;SDS011;55836;49.858;6.756;2023-02-12T15:13:53;10.40;;;6.90;;
68680;SDS011;55836;49.858;6.756;2023-02-12T15:16:34;11.83;;;7.77;;
68680;SDS011;55836;49.858;6.756;2023-02-12T15:19:16;10.40;;;7.27;;
68680;SDS011;55836;49.858;6.756;2023-02-12T15:21:43;11.67;;;8.03;;
68680;SDS011;55836;49.858;6.756;2023-02-12T15:24:11;11.87;;;7.77;;
68680;SDS011;55836;49.858;6.756;2023-02-12T15:26:41;12.63;;;7.13;;
68680;SDS011;55836;49.858;6.756;2023-02-12T15:29:15;11.27;;;7.40;;
68680;SDS011;55836;49.858;6.756;2023-02-12T15:31:48;11.07;;;7.93;;
68680;SDS011;55836;49.858;6.756;2023-02-12T15:34:16;10.47;;;7.03;;
68680;SDS011;55836;49.858;6.756;2023-02-12T15:36:46;11.30;;;8.13;;
68680;SDS011;55836;49.858;6.756;2023-02-12T15:39:19;9.07;;;6.77;;
68680;SDS011;55836;49.858;6.756;2023-02-12T15:41:46;9.50;;;6.20;;
68680;SDS011;55836;49.858;6.756;2023-02-12T15:44:29;8.33;;;6.30;;
68680;SDS011;55836;49.858;6.756;2023-02-12T15:47:08;12.67;;;6.53;;
68680;SDS011;55836;49.858;6.756;2023-02-12T15:49:35;9.20;;;6.67;;
68680;SDS011;55836;49.858;6.756;2023-02-12T15:52:07;11.57;;;7.13;;
68680;SDS011;55836;49.858;6.756;2023-02-12T15:54:33;9.53;;;6.30;;
68680;SDS011;55836;49.858;6.756;2023-02-12T15:56:59;10.33;;;6.70;;
68680;SDS011;55836;49.858;6.756;2023-02-12T15:59:26;11.03;;;6.37;;
68680;SDS011;55836;49.858;6.756;2023-02-12T16:01:57;9.47;;;6.80;;
68680;SDS011;55836;49.858;6.756;2023-02-12T16:04:27;8.90;;;6.03;;
68680;SDS011;55836;49.858;6.756;2023-02-12T16:06:53;8.77;;;6.80;;
68680;SDS011;55836;49.858;6.756;2023-02-12T16:09:21;10.07;;;6.30;;
68680;SDS011;55836;49.858;6.756;2023-02-12T16:11:52;13.43;;;7.60;;
68680;SDS011;55836;49.858;6.756;2023-02-12T16:14:21;10.90;;;6.93;;
68680;SDS011;55836;49.858;6.756;2023-02-12T16:16:48;10.23;;;6.40;;
68680;SDS011;55836;49.858;6.756;2023-02-12T16:21:45;12.67;;;7.00;;
68680;SDS011;55836;49.858;6.756;2023-02-12T16:24:18;7.47;;;5.80;;
68680;SDS011;55836;49.858;6.756;2023-02-12T16:26:45;11.77;;;6.63;;
68680;SDS011;55836;49.858;6.756;2023-02-12T16:29:13;10.03;;;7.10;;
68680;SDS011;55836;49.858;6.756;2023-02-12T16:31:41;9.13;;;6.53;;
68680;SDS011;55836;49.858;6.756;2023-02-12T16:34:34;8.73;;;6.03;;
68680;SDS011;55836;49.858;6.756;2023-02-12T16:37:02;10.73;;;6.97;;
68680;SDS011;55836;49.858;6.756;2023-02-12T16:42:14;7.47;;;5.17;;
68680;SDS011;55836;49.858;6.756;2023-02-12T16:44:43;8.73;;;6.20;;
68680;SDS011;55836;49.858;6.756;2023-02-12T16:47:11;8.80;;;6.33;;
68680;SDS011;55836;49.858;6.756;2023-02-12T16:49:51;8.20;;;5.97;;
68680;SDS011;55836;49.858;6.756;2023-02-12T16:52:33;8.50;;;6.00;;
68680;SDS011;55836;49.858;6.756;2023-02-12T16:55:00;8.57;;;5.77;;
68680;SDS011;55836;49.858;6.756;2023-02-12T16:57:26;8.67;;;5.93;;
68680;SDS011;55836;49.858;6.756;2023-02-12T16:59:53;8.40;;;5.90;;
68680;SDS011;55836;49.858;6.756;2023-02-12T17:02:19;8.20;;;5.70;;
68680;SDS011;55836;49.858;6.756;2023-02-12T17:04:45;8.23;;;5.13;;
68680;SDS011;55836;49.858;6.756;2023-02-12T17:07:21;23.77;;;14.03;;
68680;SDS011;55836;49.858;6.756;2023-02-12T17:09:48;12.40;;;8.37;;
68680;SDS011;55836;49.858;6.756;2023-02-12T17:12:14;10.50;;;6.33;;
68680;SDS011;55836;49.858;6.756;2023-02-12T17:14:40;9.43;;;6.83;;
68680;SDS011;55836;49.858;6.756;2023-02-12T17:17:06;9.20;;;7.03;;
68680;SDS011;55836;49.858;6.756;2023-02-12T17:19:32;10.40;;;7.20;;
68680;SDS011;55836;49.858;6.756;2023-02-12T17:21:58;10.33;;;9.13;;
68680;SDS011;55836;49.858;6.756;2023-02-12T17:24:25;11.03;;;7.43;;
68680;SDS011;55836;49.858;6.756;2023-02-12T17:26:52;9.63;;;6.57;;
68680;SDS011;55836;49.858;6.756;2023-02-12T17:29:19;8.13;;;5.70;;
68680;SDS011;55836;49.858;6.756;2023-02-12T17:31:45;10.17;;;6.63;;
68680;SDS011;55836;49.858;6.756;2023-02-12T17:34:17;12.40;;;7.27;;
68680;SDS011;55836;49.858;6.756;2023-02-12T17:36:43;17.17;;;11.50;;
68680;SDS011;55836;49.858;6.756;2023-02-12T17:39:10;11.60;;;7.67;;
68680;SDS011;55836;49.858;6.756;2023-02-12T17:41:36;12.03;;;7.23;;
68680;SDS011;55836;49.858;6.756;2023-02-12T17:44:02;14.13;;;9.47;;
68680;SDS011;55836;49.858;6.756;2023-02-12T17:46:28;11.73;;;8.80;;